createdAt,value
2022-09-15T00:00:28.660Z,25.42
2022-09-15T00:02:55.375Z,23.95
2022-09-15T00:05:23.393Z,27.63
2022-09-15T00:07:50.075Z,33.90
2022-09-15T00:10:16.891Z,24.65
2022-09-15T00:12:43.569Z,25.98
2022-09-15T00:15:12.206Z,28.35
2022-09-15T00:17:38.877Z,27.42
2022-09-15T00:20:06.235Z,25.63
2022-09-15T00:22:34.229Z,25.30
2022-09-15T00:25:00.842Z,24.23
2022-09-15T00:27:27.404Z,26.30
2022-09-15T00:29:53.938Z,27.13
2022-09-15T00:32:20.622Z,26.70
2022-09-15T00:34:49.749Z,26.58
2022-09-15T00:37:16.673Z,25.92
2022-09-15T00:39:44.751Z,25.83
2022-09-15T00:42:14.791Z,29.55
2022-09-15T00:44:53.315Z,26.75
2022-09-15T00:47:22.617Z,24.60
2022-09-15T00:49:58.798Z,22.23
2022-09-15T00:52:32.146Z,30.95
2022-09-15T00:55:05.461Z,25.17
2022-09-15T00:57:35.087Z,23.92
2022-09-15T01:00:05.906Z,25.08
2022-09-15T01:02:34.917Z,23.20
2022-09-15T01:05:03.453Z,27.60
2022-09-15T01:07:33.721Z,26.25
2022-09-15T01:10:05.793Z,24.83
2022-09-15T01:12:33.031Z,25.88
2022-09-15T01:15:00.675Z,24.85
2022-09-15T01:17:36.731Z,20.33
2022-09-15T01:20:33.986Z,21.85
2022-09-15T01:23:18.494Z,25.35
2022-09-15T01:26:04.456Z,22.90
2022-09-15T01:28:50.803Z,23.27
2022-09-15T01:31:23.554Z,25.45
2022-09-15T01:33:59.881Z,21.67
2022-09-15T01:36:36.081Z,27.30
2022-09-15T01:39:07.965Z,23.23
2022-09-15T01:41:40.666Z,24.88
2022-09-15T01:44:10.543Z,26.92
2022-09-15T01:46:42.470Z,24.10
2022-09-15T01:49:11.847Z,22.77
2022-09-15T01:51:40.736Z,24.15
2022-09-15T01:54:08.734Z,24.42
2022-09-15T01:56:37.418Z,25.60
2022-09-15T01:59:04.462Z,21.40
2022-09-15T02:01:36.577Z,26.17
2022-09-15T02:06:45.061Z,23.25
2022-09-15T02:09:15.184Z,23.50
2022-09-15T02:11:50.947Z,24.98
2022-09-15T02:14:22.901Z,25.35
2022-09-15T02:19:26.542Z,25.98
2022-09-15T02:21:57.383Z,22.73
2022-09-15T02:24:33.881Z,23.42
2022-09-15T02:27:02.415Z,22.35
2022-09-15T02:29:32.365Z,23.67
2022-09-15T02:32:06.878Z,24.40
2022-09-15T02:34:40.448Z,18.75
2022-09-15T02:37:09.882Z,23.90
2022-09-15T02:39:40.709Z,26.15
2022-09-15T02:42:07.654Z,24.88
2022-09-15T02:44:34.381Z,25.52
2022-09-15T02:47:02.118Z,23.25
2022-09-15T02:49:28.685Z,23.20
2022-09-15T02:51:56.675Z,23.70
2022-09-15T02:54:23.387Z,26.80
2022-09-15T02:56:50.093Z,25.42
2022-09-15T02:59:16.715Z,25.33
2022-09-15T03:01:45.386Z,25.02
2022-09-15T03:04:11.992Z,21.55
2022-09-15T03:06:40.026Z,21.10
2022-09-15T03:09:08.540Z,21.42
2022-09-15T03:11:37.946Z,24.98
2022-09-15T03:14:06.179Z,25.23
2022-09-15T03:16:34.981Z,21.75
2022-09-15T03:19:02.417Z,24.92
2022-09-15T03:21:30.435Z,24.65
2022-09-15T03:23:59.944Z,24.83
2022-09-15T03:26:28.974Z,20.38
2022-09-15T03:28:55.708Z,20.92
2022-09-15T03:31:24.189Z,23.13
2022-09-15T03:33:51.173Z,25.73
2022-09-15T03:36:17.772Z,23.45
2022-09-15T03:38:44.475Z,24.02
2022-09-15T03:41:12.414Z,23.67
2022-09-15T03:43:40.997Z,23.35
2022-09-15T03:46:10.041Z,27.65
2022-09-15T03:48:37.027Z,25.45
2022-09-15T03:51:04.551Z,24.17
2022-09-15T03:53:31.890Z,21.95
2022-09-15T03:56:08.549Z,21.80
2022-09-15T03:58:35.323Z,24.02
2022-09-15T04:01:03.724Z,23.63
2022-09-15T04:03:31.356Z,21.75
2022-09-15T04:05:57.960Z,23.33
2022-09-15T04:08:24.581Z,23.83
2022-09-15T04:10:51.106Z,23.83
2022-09-15T04:13:17.718Z,24.73
2022-09-15T04:15:44.498Z,26.30
2022-09-15T04:18:12.399Z,23.45
2022-09-15T04:20:39.478Z,28.48
2022-09-15T04:23:06.434Z,25.05
2022-09-15T04:25:33.066Z,22.67
2022-09-15T04:27:59.651Z,27.42
2022-09-15T04:30:26.262Z,25.98
2022-09-15T04:32:52.804Z,29.33
2022-09-15T04:35:20.717Z,27.67
2022-09-15T04:37:47.358Z,25.50
2022-09-15T04:40:14.163Z,37.95
2022-09-15T04:42:40.839Z,34.42
2022-09-15T04:45:08.309Z,28.92
2022-09-15T04:47:34.806Z,26.17
2022-09-15T04:50:01.546Z,27.00
2022-09-15T04:52:29.458Z,28.17
2022-09-15T04:54:56.177Z,30.15
2022-09-15T04:57:22.820Z,28.70
2022-09-15T04:59:57.240Z,25.95
2022-09-15T05:02:23.990Z,30.10
2022-09-15T05:04:50.729Z,26.98
2022-09-15T05:07:17.572Z,27.30
2022-09-15T05:09:45.545Z,28.25
2022-09-15T05:12:12.182Z,29.08
2022-09-15T05:14:38.723Z,26.98
2022-09-15T05:17:05.354Z,27.83
2022-09-15T05:19:31.937Z,29.17
2022-09-15T05:21:58.542Z,26.88
2022-09-15T05:24:25.107Z,27.23
2022-09-15T05:26:53.094Z,29.73
2022-09-15T05:29:19.691Z,26.33
2022-09-15T05:31:46.466Z,26.70
2022-09-15T05:34:13.168Z,24.08
2022-09-15T05:36:39.727Z,25.70
2022-09-15T05:39:06.477Z,24.92
2022-09-15T05:41:33.095Z,30.73
2022-09-15T05:44:01.189Z,25.00
2022-09-15T05:46:28.328Z,23.40
2022-09-15T05:48:56.539Z,23.27
2022-09-15T05:51:23.916Z,28.33
2022-09-15T05:53:50.641Z,23.00
2022-09-15T05:56:17.945Z,26.13
2022-09-15T05:58:46.494Z,29.77
2022-09-15T06:01:16.617Z,26.17
2022-09-15T06:03:43.762Z,22.52
2022-09-15T06:06:10.979Z,27.48
2022-09-15T06:08:44.023Z,23.88
2022-09-15T06:11:12.671Z,26.88
2022-09-15T06:13:39.621Z,24.52
2022-09-15T06:16:08.307Z,22.88
2022-09-15T06:18:39.268Z,25.52
2022-09-15T06:21:08.544Z,24.15
2022-09-15T06:23:35.515Z,25.23
2022-09-15T06:26:07.272Z,23.20
2022-09-15T06:28:34.073Z,23.67
2022-09-15T06:31:00.856Z,29.88
2022-09-15T06:33:27.725Z,23.10
2022-09-15T06:35:55.820Z,30.00
2022-09-15T06:38:22.615Z,26.67
2022-09-15T06:40:56.313Z,23.98
2022-09-15T06:43:23.181Z,24.80
2022-09-15T06:45:49.951Z,26.33
2022-09-15T06:48:24.503Z,28.20
2022-09-15T06:50:56.061Z,25.77
2022-09-15T06:53:22.728Z,26.70
2022-09-15T06:55:49.456Z,25.65
2022-09-15T06:58:16.488Z,27.92
2022-09-15T07:00:43.212Z,29.50
2022-09-15T07:03:09.978Z,27.50
2022-09-15T07:05:36.663Z,24.95
2022-09-15T07:08:07.626Z,26.42
2022-09-15T07:10:34.374Z,25.27
2022-09-15T07:13:01.082Z,26.10
2022-09-15T07:15:27.679Z,24.00
2022-09-15T07:17:54.324Z,22.42
2022-09-15T07:20:21.612Z,25.98
2022-09-15T07:22:48.252Z,21.35
2022-09-15T07:25:16.361Z,21.33
2022-09-15T07:27:42.953Z,20.35
2022-09-15T07:30:10.690Z,19.52
2022-09-15T07:32:37.352Z,20.38
2022-09-15T07:35:04.430Z,18.02
2022-09-15T07:37:31.019Z,18.08
2022-09-15T07:39:57.799Z,19.58
2022-09-15T07:42:25.786Z,19.83
2022-09-15T07:44:52.534Z,19.75
2022-09-15T07:47:19.119Z,17.35
2022-09-15T07:49:45.747Z,19.00
2022-09-15T07:52:12.326Z,21.80
2022-09-15T07:54:38.921Z,19.55
2022-09-15T07:57:05.561Z,19.27
2022-09-15T07:59:34.407Z,18.80
2022-09-15T08:02:03.105Z,20.52
2022-09-15T08:04:29.701Z,20.52
2022-09-15T08:06:56.419Z,18.50
2022-09-15T08:09:23.258Z,16.33
2022-09-15T08:11:49.994Z,16.15
2022-09-15T08:14:16.608Z,16.13
2022-09-15T08:16:44.658Z,13.32
2022-09-15T08:19:11.958Z,13.32
2022-09-15T08:21:38.603Z,14.13
2022-09-15T08:24:05.406Z,12.77
2022-09-15T08:26:32.026Z,14.25
2022-09-15T08:28:58.584Z,11.48
2022-09-15T08:31:25.624Z,12.70
2022-09-15T08:33:55.173Z,13.85
2022-09-15T08:36:22.417Z,12.88
2022-09-15T08:38:48.994Z,10.77
2022-09-15T08:41:19.942Z,8.77
2022-09-15T08:43:49.923Z,7.85
2022-09-15T08:46:21.645Z,8.90
2022-09-15T08:49:03.406Z,10.75
2022-09-15T08:51:39.598Z,9.60
2022-09-15T08:54:14.421Z,9.27
2022-09-15T08:56:42.967Z,7.78
2022-09-15T08:59:13.417Z,8.30
2022-09-15T09:01:51.660Z,6.35
2022-09-15T09:04:31.532Z,13.50
2022-09-15T09:07:13.563Z,8.02
2022-09-15T09:09:45.579Z,7.63
2022-09-15T09:12:49.917Z,9.65
2022-09-15T09:15:26.755Z,8.57
2022-09-15T09:18:17.477Z,7.03
2022-09-15T09:20:52.484Z,11.15
2022-09-15T09:23:26.106Z,8.65
2022-09-15T09:25:52.945Z,8.90
2022-09-15T09:28:32.010Z,10.65
2022-09-15T09:31:02.384Z,7.65
2022-09-15T09:33:38.546Z,5.28
2022-09-15T09:36:05.613Z,8.43
2022-09-15T09:38:37.067Z,7.40
2022-09-15T09:41:08.447Z,12.95
2022-09-15T09:43:35.225Z,4.53
2022-09-15T09:46:01.987Z,5.28
2022-09-15T09:48:29.522Z,9.25
2022-09-15T09:50:56.529Z,4.72
2022-09-15T09:53:28.418Z,4.88
2022-09-15T09:56:16.838Z,7.53
2022-09-15T09:58:44.375Z,5.70
2022-09-15T10:01:13.893Z,6.43
2022-09-15T10:03:42.616Z,4.88
2022-09-15T10:06:13.348Z,5.80
2022-09-15T10:08:53.916Z,5.45
2022-09-15T10:11:22.247Z,4.45
2022-09-15T10:13:54.522Z,4.10
2022-09-15T10:16:22.171Z,3.88
2022-09-15T10:18:53.598Z,4.05
2022-09-15T10:21:23.891Z,5.57
2022-09-15T10:23:50.864Z,6.57
2022-09-15T10:26:31.109Z,3.38
2022-09-15T10:29:12.227Z,5.55
2022-09-15T10:31:39.957Z,5.55
2022-09-15T10:34:29.989Z,3.40
2022-09-15T10:37:13.955Z,3.92
2022-09-15T10:39:51.581Z,4.75
2022-09-15T10:42:31.671Z,4.38
2022-09-15T10:45:07.494Z,7.15
2022-09-15T10:47:45.053Z,4.20
2022-09-15T10:50:16.896Z,5.13
2022-09-15T10:53:03.092Z,3.58
2022-09-15T10:55:52.865Z,5.30
2022-09-15T10:58:53.214Z,3.88
2022-09-15T11:01:34.948Z,5.90
2022-09-15T11:04:22.845Z,2.30
2022-09-15T11:06:58.473Z,4.80
2022-09-15T11:09:31.833Z,4.07
2022-09-15T11:12:10.925Z,4.35
2022-09-15T11:15:00.754Z,8.05
2022-09-15T11:17:44.808Z,4.63
2022-09-15T11:20:32.244Z,4.13
2022-09-15T11:23:03.187Z,4.13
2022-09-15T11:25:34.170Z,5.18
2022-09-15T11:28:08.827Z,3.30
2022-09-15T11:30:45.652Z,6.13
2022-09-15T11:33:20.384Z,5.53
2022-09-15T11:35:52.346Z,4.70
2022-09-15T11:38:29.197Z,6.90
2022-09-15T11:41:10.102Z,4.45
2022-09-15T11:43:45.785Z,4.45
2022-09-15T11:46:23.226Z,4.43
2022-09-15T11:48:56.454Z,2.70
2022-09-15T11:51:26.654Z,5.70
2022-09-15T11:53:58.307Z,6.45
2022-09-15T11:56:29.402Z,6.75
2022-09-15T11:59:14.466Z,2.75
2022-09-15T12:01:55.452Z,7.13
2022-09-15T12:04:27.128Z,3.05
2022-09-15T12:09:31.856Z,3.13
2022-09-15T12:12:02.841Z,5.60
2022-09-15T12:14:34.368Z,3.25
2022-09-15T12:17:05.445Z,3.05
2022-09-15T12:19:48.475Z,5.20
2022-09-15T12:22:20.622Z,4.82
2022-09-15T12:27:19.467Z,5.30
2022-09-15T12:29:49.882Z,2.72
2022-09-15T12:32:26.226Z,7.63
2022-09-15T12:35:29.846Z,3.63
2022-09-15T12:37:58.096Z,5.45
2022-09-15T12:40:31.903Z,5.20
2022-09-15T12:42:58.807Z,5.63
2022-09-15T12:45:27.460Z,5.53
2022-09-15T12:48:01.205Z,6.47
2022-09-15T12:50:31.384Z,4.13
2022-09-15T12:53:00.985Z,6.03
2022-09-15T12:55:32.647Z,5.38
2022-09-15T12:58:01.534Z,6.00
2022-09-15T13:00:34.534Z,4.45
2022-09-15T13:03:04.626Z,6.22
2022-09-15T13:06:12.775Z,3.75
2022-09-15T13:08:49.452Z,4.70
2022-09-15T13:11:21.221Z,3.83
2022-09-15T13:13:54.287Z,3.97
2022-09-15T13:16:29.155Z,4.93
2022-09-15T13:19:08.454Z,5.50
2022-09-15T13:21:37.908Z,4.10
2022-09-15T13:24:15.306Z,3.55
2022-09-15T13:26:44.119Z,3.30
2022-09-15T13:29:14.794Z,5.28
2022-09-15T13:31:50.332Z,5.22
2022-09-15T13:35:13.186Z,4.80
2022-09-15T13:38:07.860Z,4.32
2022-09-15T13:40:56.387Z,3.45
2022-09-15T13:46:20.220Z,6.40
2022-09-15T13:48:57.312Z,5.03
2022-09-15T13:51:30.581Z,3.90
2022-09-15T13:54:02.107Z,3.10
2022-09-15T13:56:31.358Z,6.80
2022-09-15T13:59:06.737Z,6.18
2022-09-15T14:01:38.069Z,5.93
2022-09-15T14:04:09.519Z,4.60
2022-09-15T14:06:40.230Z,3.90
2022-09-15T14:09:15.239Z,3.45
2022-09-15T14:11:43.767Z,6.13
2022-09-15T14:14:25.149Z,4.43
2022-09-15T14:16:51.812Z,4.75
2022-09-15T14:19:28.904Z,5.55
2022-09-15T14:21:58.686Z,3.22
2022-09-15T14:24:27.961Z,2.78
2022-09-15T14:26:54.813Z,4.90
2022-09-15T14:29:23.234Z,3.95
2022-09-15T14:31:49.856Z,4.22
2022-09-15T14:34:20.172Z,5.07
2022-09-15T14:36:58.131Z,5.25
2022-09-15T14:39:26.206Z,5.00
2022-09-15T14:41:53.150Z,2.53
2022-09-15T14:47:13.865Z,5.70
2022-09-15T14:49:41.175Z,3.78
2022-09-15T14:52:26.048Z,7.18
2022-09-15T14:54:59.906Z,2.08
2022-09-15T14:57:31.350Z,3.60
2022-09-15T15:00:03.187Z,4.78
2022-09-15T15:02:40.909Z,3.28
2022-09-15T15:05:14.504Z,4.30
2022-09-15T15:07:42.799Z,6.00
2022-09-15T15:10:16.794Z,4.25
2022-09-15T15:12:47.882Z,5.57
2022-09-15T15:15:16.331Z,6.55
2022-09-15T15:17:45.075Z,4.65
2022-09-15T15:20:16.096Z,2.38
2022-09-15T15:22:44.256Z,3.58
2022-09-15T15:25:27.569Z,4.65
2022-09-15T15:27:56.773Z,2.40
2022-09-15T15:30:26.806Z,6.53
2022-09-15T15:32:53.925Z,1.88
2022-09-15T15:35:21.004Z,1.70
2022-09-15T15:37:49.195Z,2.28
2022-09-15T15:40:18.722Z,1.85
2022-09-15T15:42:57.716Z,3.20
2022-09-15T15:45:28.395Z,2.22
2022-09-15T15:47:55.142Z,2.22
2022-09-15T15:50:24.496Z,3.70
2022-09-15T15:52:52.246Z,1.38
2022-09-15T15:55:20.903Z,2.35
2022-09-15T15:57:49.507Z,2.83
2022-09-15T16:00:23.425Z,4.93
2022-09-15T16:02:50.915Z,2.97
2022-09-15T16:05:18.265Z,5.20
2022-09-15T16:07:46.781Z,2.05
2022-09-15T16:10:16.511Z,4.45
2022-09-15T16:12:43.245Z,1.73
2022-09-15T16:15:13.571Z,3.70
2022-09-15T16:17:45.932Z,7.20
2022-09-15T16:20:14.410Z,2.20
2022-09-15T16:23:21.584Z,3.35
2022-09-15T16:26:15.803Z,3.85
2022-09-15T16:28:52.764Z,3.30
2022-09-15T16:31:19.812Z,2.88
2022-09-15T16:33:48.022Z,4.85
2022-09-15T16:36:16.479Z,3.45
2022-09-15T16:38:44.199Z,3.60
2022-09-15T16:41:16.230Z,4.05
2022-09-15T16:46:13.664Z,5.70
2022-09-15T16:48:42.089Z,3.08
2022-09-15T16:51:30.833Z,4.45
2022-09-15T16:53:59.681Z,2.17
2022-09-15T16:56:26.926Z,1.73
2022-09-15T16:58:58.933Z,3.50
2022-09-15T17:01:26.962Z,1.90
2022-09-15T17:03:53.990Z,4.70
2022-09-15T17:06:22.441Z,2.78
2022-09-15T17:08:49.294Z,4.50
2022-09-15T17:11:21.655Z,1.90
2022-09-15T17:13:51.359Z,6.65
2022-09-15T17:16:19.841Z,4.90
2022-09-15T17:18:46.815Z,2.85
2022-09-15T17:21:18.480Z,4.50
2022-09-15T17:23:48.469Z,3.47
2022-09-15T17:26:18.988Z,2.63
2022-09-15T17:28:46.962Z,3.97
2022-09-15T17:31:16.091Z,3.45
2022-09-15T17:33:43.377Z,3.78
2022-09-15T17:36:10.350Z,4.63
2022-09-15T17:38:37.356Z,2.83
2022-09-15T17:41:05.835Z,4.18
2022-09-15T17:43:32.688Z,1.83
2022-09-15T17:46:02.208Z,4.07
2022-09-15T17:48:29.342Z,3.20
2022-09-15T17:50:58.255Z,2.58
2022-09-15T17:53:25.735Z,2.35
2022-09-15T17:55:54.038Z,2.67
2022-09-15T17:58:23.262Z,4.05
2022-09-15T18:00:53.875Z,4.20
2022-09-15T18:03:23.897Z,4.20
2022-09-15T18:05:52.382Z,2.28
2022-09-15T18:08:19.039Z,2.55
2022-09-15T18:10:46.322Z,2.35
2022-09-15T18:13:14.935Z,4.03
2022-09-15T18:15:43.633Z,4.32
2022-09-15T18:18:14.811Z,5.97
2022-09-15T18:20:42.127Z,3.22
2022-09-15T18:23:17.546Z,3.30
2022-09-15T18:25:44.474Z,8.27
2022-09-15T18:28:11.229Z,5.15
2022-09-15T18:30:40.253Z,3.67
2022-09-15T18:33:13.230Z,3.40
2022-09-15T18:35:40.904Z,5.90
2022-09-15T18:38:08.589Z,4.80
2022-09-15T18:40:36.569Z,2.63
2022-09-15T18:43:04.606Z,2.92
2022-09-15T18:45:31.245Z,3.53
2022-09-15T18:47:57.943Z,4.43
2022-09-15T18:50:27.248Z,5.60
2022-09-15T18:52:53.886Z,6.03
2022-09-15T18:55:22.305Z,3.50
2022-09-15T18:57:49.432Z,3.63
2022-09-15T19:00:18.356Z,5.50
2022-09-15T19:02:45.872Z,6.07
2022-09-15T19:05:13.918Z,5.60
2022-09-15T19:07:42.218Z,4.95
2022-09-15T19:10:12.807Z,5.20
2022-09-15T19:12:44.165Z,2.60
2022-09-15T19:15:13.289Z,2.90
2022-09-15T19:17:41.032Z,2.80
2022-09-15T19:20:10.356Z,2.55
2022-09-15T19:22:37.751Z,4.25
2022-09-15T19:25:07.632Z,5.35
2022-09-15T19:27:34.613Z,5.45
2022-09-15T19:30:01.840Z,3.20
2022-09-15T19:32:28.572Z,3.15
2022-09-15T19:34:56.860Z,3.90
2022-09-15T19:37:27.905Z,3.47
2022-09-15T19:42:23.864Z,1.90
2022-09-15T19:44:52.433Z,4.00
2022-09-15T19:47:19.247Z,4.47
2022-09-15T19:49:46.028Z,2.15
2022-09-15T19:52:12.983Z,8.38
2022-09-15T19:54:39.794Z,6.25
2022-09-15T19:57:06.653Z,4.10
2022-09-15T19:59:35.036Z,4.95
2022-09-15T20:02:03.058Z,2.85
2022-09-15T20:04:29.763Z,3.42
2022-09-15T20:06:56.465Z,3.22
2022-09-15T20:09:23.973Z,5.70
2022-09-15T20:11:50.887Z,6.60
2022-09-15T20:14:17.529Z,6.03
2022-09-15T20:16:45.558Z,7.22
2022-09-15T20:19:15.321Z,6.15
2022-09-15T20:21:50.802Z,3.38
2022-09-15T20:24:19.116Z,4.85
2022-09-15T20:26:45.954Z,6.45
2022-09-15T20:29:12.710Z,4.65
2022-09-15T20:31:40.171Z,5.10
2022-09-15T20:34:08.289Z,4.63
2022-09-15T20:36:36.969Z,2.63
2022-09-15T20:39:06.318Z,11.20
2022-09-15T20:41:34.530Z,1.92
2022-09-15T20:44:01.530Z,6.10
2022-09-15T20:46:28.219Z,3.88
2022-09-15T20:48:54.911Z,2.67
2022-09-15T20:51:24.424Z,4.25
2022-09-15T20:53:52.964Z,3.72
2022-09-15T20:56:21.499Z,6.13
2022-09-15T20:58:48.103Z,5.40
2022-09-15T21:01:16.353Z,5.18
2022-09-15T21:03:44.832Z,4.97
2022-09-15T21:06:13.730Z,4.35
2022-09-15T21:08:42.064Z,3.13
2022-09-15T21:11:10.218Z,2.72
2022-09-15T21:13:38.764Z,3.95
2022-09-15T21:16:07.828Z,5.78
2022-09-15T21:18:36.119Z,5.00
2022-09-15T21:21:04.985Z,5.03
2022-09-15T21:23:33.776Z,7.05
2022-09-15T21:26:03.783Z,3.45
2022-09-15T21:28:30.479Z,4.75
2022-09-15T21:31:01.238Z,2.40
2022-09-15T21:33:27.851Z,6.32
2022-09-15T21:36:02.055Z,5.47
2022-09-15T21:38:28.652Z,4.18
2022-09-15T21:40:55.411Z,6.45
2022-09-15T21:43:23.589Z,4.85
2022-09-15T21:45:54.829Z,7.07
2022-09-15T21:48:21.632Z,5.87
2022-09-15T21:50:49.782Z,4.07
2022-09-15T21:53:17.069Z,4.68
2022-09-15T21:55:43.742Z,5.15
2022-09-15T21:58:10.339Z,5.28
2022-09-15T22:00:38.600Z,3.78
2022-09-15T22:03:05.486Z,8.25
2022-09-15T22:05:32.071Z,3.45
2022-09-15T22:08:01.591Z,4.90
2022-09-15T22:10:31.357Z,7.88
2022-09-15T22:12:57.956Z,2.58
2022-09-15T22:15:24.675Z,4.10
2022-09-15T22:17:52.883Z,4.78
2022-09-15T22:20:19.543Z,4.38
2022-09-15T22:22:46.212Z,2.78
2022-09-15T22:25:12.957Z,3.78
2022-09-15T22:27:39.574Z,4.05
2022-09-15T22:30:07.825Z,5.28
2022-09-15T22:32:34.712Z,4.55
2022-09-15T22:35:02.700Z,4.60
2022-09-15T22:37:29.352Z,3.72
2022-09-15T22:39:59.621Z,5.57
2022-09-15T22:42:26.579Z,2.53
2022-09-15T22:44:53.195Z,5.90
2022-09-15T22:47:19.801Z,4.40
2022-09-15T22:49:46.366Z,2.40
2022-09-15T22:52:14.489Z,3.97
2022-09-15T22:54:40.996Z,3.10
2022-09-15T22:57:07.641Z,4.13
2022-09-15T22:59:34.242Z,3.25
2022-09-15T23:02:01.118Z,4.45
2022-09-15T23:04:28.124Z,2.55
2022-09-15T23:06:54.820Z,2.70
2022-09-15T23:09:22.815Z,6.53
2022-09-15T23:11:49.493Z,1.33
2022-09-15T23:14:17.033Z,4.10
2022-09-15T23:16:44.267Z,7.30
2022-09-15T23:19:12.181Z,5.00
2022-09-15T23:21:39.013Z,3.45
2022-09-15T23:24:06.124Z,3.00
2022-09-15T23:26:34.144Z,3.50
2022-09-15T23:29:00.674Z,7.47
2022-09-15T23:31:27.412Z,4.65
2022-09-15T23:33:53.961Z,5.68
2022-09-15T23:36:20.571Z,4.78
2022-09-15T23:38:48.326Z,6.85
2022-09-15T23:41:16.098Z,5.72
2022-09-15T23:43:44.501Z,4.43
2022-09-15T23:46:11.551Z,4.10
2022-09-15T23:48:38.226Z,2.53
2022-09-15T23:51:05.558Z,5.03
2022-09-15T23:53:32.187Z,4.50
2022-09-15T23:55:58.846Z,4.05
2022-09-15T23:58:25.594Z,6.22
